createdAt,value
2022-11-17T00:00:56.952Z,1000
2022-11-17T00:03:52.165Z,999.9
2022-11-17T00:06:52.385Z,999.9
2022-11-17T00:09:52.636Z,999.8
2022-11-17T00:12:52.836Z,999.8
2022-11-17T00:15:53.084Z,999.8
2022-11-17T00:18:53.310Z,999.7
2022-11-17T00:21:53.524Z,999.7
2022-11-17T00:24:53.762Z,999.7
2022-11-17T00:27:53.962Z,999.6
2022-11-17T00:30:54.223Z,999.6
2022-11-17T00:33:54.470Z,999.6
2022-11-17T00:36:54.667Z,999.6
2022-11-17T00:40:00.358Z,999.6
2022-11-17T00:42:55.113Z,999.5
2022-11-17T00:45:55.369Z,999.5
2022-11-17T00:48:55.581Z,999.5
2022-11-17T00:51:55.832Z,999.5
2022-11-17T00:54:51.027Z,999.4
2022-11-17T00:57:51.291Z,999.4
2022-11-17T01:00:51.494Z,999.3
2022-11-17T01:03:51.755Z,999.3
2022-11-17T01:06:51.985Z,999.2
2022-11-17T01:09:52.176Z,999.1
2022-11-17T01:12:52.418Z,999.1
2022-11-17T01:15:52.632Z,999.1
2022-11-17T01:18:52.852Z,999
2022-11-17T01:21:53.102Z,999
2022-11-17T01:24:53.326Z,999
2022-11-17T01:27:53.547Z,998.9
2022-11-17T01:30:53.779Z,998.9
2022-11-17T01:33:53.992Z,998.9
2022-11-17T01:36:54.230Z,998.9
2022-11-17T01:39:54.452Z,998.9
2022-11-17T01:42:54.670Z,998.8
2022-11-17T01:45:54.902Z,998.8
2022-11-17T01:48:55.144Z,998.8
2022-11-17T01:51:55.378Z,998.7
2022-11-17T01:54:55.593Z,998.7
2022-11-17T01:57:55.810Z,998.6
2022-11-17T02:00:56.054Z,998.6
2022-11-17T02:03:56.276Z,998.5
2022-11-17T02:06:56.639Z,998.5
2022-11-17T02:09:51.738Z,998.4
2022-11-17T02:12:51.956Z,998.4
2022-11-17T02:15:52.226Z,998.3
2022-11-17T02:18:52.408Z,998.3
2022-11-17T02:21:52.663Z,998.2
2022-11-17T02:24:52.866Z,998.2
2022-11-17T02:27:53.080Z,998.1
2022-11-17T02:30:53.336Z,998
2022-11-17T02:33:53.595Z,998
2022-11-17T02:36:53.773Z,998
2022-11-17T02:39:54.017Z,998
2022-11-17T02:42:54.256Z,998
2022-11-17T02:45:54.456Z,998
2022-11-17T02:48:54.682Z,998
2022-11-17T02:51:54.914Z,998
2022-11-17T02:54:55.158Z,998
2022-11-17T02:57:55.442Z,998
2022-11-17T03:00:55.613Z,997.9
2022-11-17T03:03:55.823Z,997.9
2022-11-17T03:06:56.082Z,997.9
2022-11-17T03:09:56.308Z,997.9
2022-11-17T03:12:51.519Z,997.9
2022-11-17T03:15:51.746Z,997.8
2022-11-17T03:18:51.970Z,997.8
2022-11-17T03:21:52.214Z,997.8
2022-11-17T03:24:52.425Z,997.8
2022-11-17T03:27:52.683Z,997.7
2022-11-17T03:30:52.884Z,997.7
2022-11-17T03:33:53.125Z,997.7
2022-11-17T03:36:53.323Z,997.7
2022-11-17T03:39:53.610Z,997.6
2022-11-17T03:42:53.790Z,997.6
2022-11-17T03:45:54.022Z,997.6
2022-11-17T03:48:55.287Z,997.6
2022-11-17T03:51:54.471Z,997.5
2022-11-17T03:54:54.690Z,997.5
2022-11-17T03:57:54.919Z,997.5
2022-11-17T04:00:55.156Z,997.5
2022-11-17T04:03:55.401Z,997.5
2022-11-17T04:06:55.690Z,997.5
2022-11-17T04:09:55.859Z,997.4
2022-11-17T04:12:56.072Z,997.4
2022-11-17T04:15:56.328Z,997.4
2022-11-17T04:18:54.548Z,997.3
2022-11-17T04:21:51.748Z,997.3
2022-11-17T04:24:51.992Z,997.2
2022-11-17T04:27:52.220Z,997.2
2022-11-17T04:30:52.441Z,997.1
2022-11-17T04:33:52.690Z,997
2022-11-17T04:36:52.882Z,997
2022-11-17T04:39:53.141Z,996.9
2022-11-17T04:42:53.345Z,996.9
2022-11-17T04:45:53.606Z,996.9
2022-11-17T04:48:53.816Z,996.9
2022-11-17T04:51:54.029Z,996.8
2022-11-17T04:54:54.250Z,996.8
2022-11-17T04:57:54.586Z,996.8
2022-11-17T05:00:54.881Z,996.7
2022-11-17T05:03:54.971Z,996.7
2022-11-17T05:06:55.214Z,996.7
2022-11-17T05:09:55.406Z,996.7
2022-11-17T05:12:55.640Z,996.6
2022-11-17T05:15:55.899Z,996.6
2022-11-17T05:18:56.082Z,996.6
2022-11-17T05:21:56.356Z,996.6
2022-11-17T05:24:51.568Z,996.6
2022-11-17T05:27:51.764Z,996.6
2022-11-17T05:30:52.004Z,996.6
2022-11-17T05:33:52.216Z,996.6
2022-11-17T05:36:52.455Z,996.6
2022-11-17T05:39:52.686Z,996.6
2022-11-17T05:42:56.935Z,996.6
2022-11-17T05:45:53.149Z,996.6
2022-11-17T05:48:53.378Z,996.6
2022-11-17T05:51:53.620Z,996.6
2022-11-17T05:54:53.810Z,996.6
2022-11-17T05:57:54.064Z,996.6
2022-11-17T06:00:54.376Z,996.6
2022-11-17T06:03:54.935Z,996.5
2022-11-17T06:06:54.974Z,996.5
2022-11-17T06:09:55.127Z,996.5
2022-11-17T06:12:55.316Z,996.5
2022-11-17T06:15:55.538Z,996.5
2022-11-17T06:18:55.799Z,996.4
2022-11-17T06:22:13.633Z,996.4
2022-11-17T06:24:56.200Z,996.4
2022-11-17T06:27:51.464Z,996.4
2022-11-17T06:30:51.657Z,996.4
2022-11-17T06:33:51.895Z,996.4
2022-11-17T06:36:52.161Z,996.4
2022-11-17T06:39:52.400Z,996.4
2022-11-17T06:42:52.627Z,996.4
2022-11-17T06:45:52.849Z,996.3
2022-11-17T06:48:53.043Z,996.3
2022-11-17T06:51:53.308Z,996.3
2022-11-17T06:54:53.541Z,996.3
2022-11-17T06:57:53.990Z,996.2
2022-11-17T07:00:54.249Z,996.2
2022-11-17T07:03:54.254Z,996.2
2022-11-17T07:06:54.653Z,996.2
2022-11-17T07:09:54.759Z,996.2
2022-11-17T07:12:54.991Z,996.2
2022-11-17T07:15:55.193Z,996.1
2022-11-17T07:18:55.468Z,996.1
2022-11-17T07:21:55.689Z,996.1
2022-11-17T07:24:55.840Z,996.1
2022-11-17T07:27:56.068Z,996.1
2022-11-17T07:30:56.305Z,996.1
2022-11-17T07:33:56.528Z,996.1
2022-11-17T07:36:51.750Z,996.2
2022-11-17T07:39:52.038Z,996.2
2022-11-17T07:43:05.506Z,996.2
2022-11-17T07:45:52.475Z,996.2
2022-11-17T07:48:52.744Z,996.2
2022-11-17T07:51:52.946Z,996.2
2022-11-17T07:54:53.114Z,996.2
2022-11-17T07:57:53.351Z,996.2
2022-11-17T08:00:53.697Z,996.2
2022-11-17T08:03:54.012Z,996.2
2022-11-17T08:06:54.166Z,996.2
2022-11-17T08:09:54.317Z,996.2
2022-11-17T08:12:54.548Z,996.2
2022-11-17T08:15:54.802Z,996.2
2022-11-17T08:18:54.997Z,996.2
2022-11-17T08:21:55.226Z,996.2
2022-11-17T08:24:55.379Z,996.2
2022-11-17T08:27:55.643Z,996.2
2022-11-17T08:30:55.868Z,996.2
2022-11-17T08:33:56.088Z,996.1
2022-11-17T08:36:56.301Z,996.2
2022-11-17T08:39:51.546Z,996.1
2022-11-17T08:43:01.288Z,996.1
2022-11-17T08:45:52.055Z,996.1
2022-11-17T08:48:57.558Z,996.1
2022-11-17T08:51:52.492Z,996.1
2022-11-17T08:54:52.906Z,996.1
2022-11-17T08:57:52.907Z,996.1
2022-11-17T09:00:53.400Z,996.1
2022-11-17T09:03:53.424Z,996
2022-11-17T09:06:53.792Z,996
2022-11-17T09:09:53.791Z,996
2022-11-17T09:12:54.104Z,996
2022-11-17T09:15:54.280Z,996
2022-11-17T09:18:59.545Z,996
2022-11-17T09:21:54.739Z,995.9
2022-11-17T09:24:54.989Z,995.9
2022-11-17T09:27:55.146Z,995.9
2022-11-17T09:30:55.594Z,995.9
2022-11-17T09:34:03.804Z,995.8
2022-11-17T09:36:55.859Z,995.8
2022-11-17T09:39:56.122Z,995.8
2022-11-17T09:42:56.375Z,995.8
2022-11-17T09:45:51.603Z,995.8
2022-11-17T09:48:52.153Z,995.8
2022-11-17T09:51:52.070Z,995.7
2022-11-17T09:54:52.258Z,995.7
2022-11-17T09:57:52.435Z,995.7
2022-11-17T10:00:52.706Z,995.7
2022-11-17T10:03:52.914Z,995.7
2022-11-17T10:06:53.281Z,995.7
2022-11-17T10:09:53.404Z,995.6
2022-11-17T10:12:53.609Z,995.6
2022-11-17T10:15:53.907Z,995.6
2022-11-17T10:18:54.076Z,995.6
2022-11-17T10:21:54.337Z,995.6
2022-11-17T10:24:54.552Z,995.6
2022-11-17T10:27:54.731Z,995.6
2022-11-17T10:30:54.966Z,995.6
2022-11-17T10:33:55.579Z,995.6
2022-11-17T10:36:55.392Z,995.5
2022-11-17T10:39:55.670Z,995.5
2022-11-17T10:42:55.928Z,995.5
2022-11-17T10:45:56.191Z,995.5
2022-11-17T10:48:56.348Z,995.5
2022-11-17T10:51:51.612Z,995.4
2022-11-17T10:54:51.807Z,995.4
2022-11-17T10:57:51.970Z,995.4
2022-11-17T11:00:57.418Z,995.3
2022-11-17T11:03:52.486Z,995.3
2022-11-17T11:06:52.855Z,995.3
2022-11-17T11:09:57.917Z,995.2
2022-11-17T11:12:53.176Z,995.2
2022-11-17T11:15:53.451Z,995.2
2022-11-17T11:18:53.702Z,995.1
2022-11-17T11:21:53.890Z,995.1
2022-11-17T11:24:54.103Z,995.1
2022-11-17T11:27:54.300Z,995.1
2022-11-17T11:30:54.490Z,995
2022-11-17T11:33:54.758Z,995
2022-11-17T11:36:54.939Z,995
2022-11-17T11:39:55.213Z,995
2022-11-17T11:42:55.386Z,995
2022-11-17T11:45:55.726Z,995
2022-11-17T11:48:55.944Z,994.9
2022-11-17T11:51:56.148Z,994.9
2022-11-17T11:54:56.439Z,994.9
2022-11-17T11:57:51.587Z,994.9
2022-11-17T12:00:51.759Z,994.9
2022-11-17T12:03:51.999Z,994.9
2022-11-17T12:06:52.572Z,994.9
2022-11-17T12:09:52.450Z,994.9
2022-11-17T12:12:52.697Z,994.9
2022-11-17T12:15:52.985Z,994.9
2022-11-17T12:18:53.203Z,994.8
2022-11-17T12:21:53.542Z,994.8
2022-11-17T12:24:53.652Z,994.8
2022-11-17T12:27:53.912Z,994.8
2022-11-17T12:30:54.106Z,994.8
2022-11-17T12:33:54.356Z,994.8
2022-11-17T12:36:54.501Z,994.8
2022-11-17T12:39:54.778Z,994.8
2022-11-17T12:42:55.001Z,994.9
2022-11-17T12:46:05.293Z,994.9
2022-11-17T12:48:55.582Z,994.9
2022-11-17T12:51:55.716Z,994.9
2022-11-17T12:54:55.917Z,994.9
2022-11-17T12:57:56.180Z,994.9
2022-11-17T13:00:56.640Z,994.9
2022-11-17T13:03:51.575Z,994.9
2022-11-17T13:06:51.992Z,994.9
2022-11-17T13:09:52.003Z,994.9
2022-11-17T13:12:52.295Z,994.9
2022-11-17T13:15:52.673Z,994.9
2022-11-17T13:18:52.729Z,995
2022-11-17T13:21:52.988Z,995
2022-11-17T13:24:53.210Z,995
2022-11-17T13:28:04.506Z,995
2022-11-17T13:30:53.601Z,995
2022-11-17T13:33:53.863Z,995
2022-11-17T13:36:54.025Z,995
2022-11-17T13:39:54.290Z,995
2022-11-17T13:42:54.480Z,995
2022-11-17T13:45:54.811Z,995
2022-11-17T13:48:55.003Z,995
2022-11-17T13:51:55.365Z,995
2022-11-17T13:54:55.503Z,995
2022-11-17T13:57:55.713Z,995
2022-11-17T14:01:11.000Z,995
2022-11-17T14:03:51.064Z,995
2022-11-17T14:06:56.330Z,995
2022-11-17T14:09:51.545Z,995
2022-11-17T14:12:51.710Z,995
2022-11-17T14:15:54.039Z,995
2022-11-17T14:18:52.298Z,995.1
2022-11-17T14:21:52.547Z,995.1
2022-11-17T14:24:52.790Z,995.1
2022-11-17T14:27:53.712Z,995.1
2022-11-17T14:30:53.059Z,995.1
2022-11-17T14:33:53.329Z,995.1
2022-11-17T14:36:53.524Z,995.1
2022-11-17T14:39:53.771Z,995.1
2022-11-17T14:42:53.971Z,995.1
2022-11-17T14:45:54.322Z,995.1
2022-11-17T14:48:54.496Z,995.1
2022-11-17T14:51:54.738Z,995.2
2022-11-17T14:54:54.918Z,995.2
2022-11-17T14:57:55.227Z,995.2
2022-11-17T15:00:55.386Z,995.2
2022-11-17T15:03:55.725Z,995.2
2022-11-17T15:06:55.898Z,995.2
2022-11-17T15:09:56.043Z,995.2
2022-11-17T15:12:56.384Z,995.3
2022-11-17T15:15:51.516Z,995.3
2022-11-17T15:18:51.753Z,995.3
2022-11-17T15:21:52.006Z,995.3
2022-11-17T15:24:52.214Z,995.4
2022-11-17T15:27:52.448Z,995.4
2022-11-17T15:30:52.685Z,995.4
2022-11-17T15:33:52.859Z,995.4
2022-11-17T15:36:53.052Z,995.4
2022-11-17T15:39:53.316Z,995.4
2022-11-17T15:42:53.501Z,995.4
2022-11-17T15:45:53.778Z,995.4
2022-11-17T15:48:54.068Z,995.5
2022-11-17T15:51:54.239Z,995.5
2022-11-17T15:54:54.483Z,995.5
2022-11-17T15:57:54.696Z,995.5
2022-11-17T16:00:55.061Z,995.5
2022-11-17T16:03:55.134Z,995.6
2022-11-17T16:06:55.465Z,995.6
2022-11-17T16:09:55.575Z,995.6
2022-11-17T16:12:55.820Z,995.6
2022-11-17T16:15:56.017Z,995.6
2022-11-17T16:18:56.323Z,995.6
2022-11-17T16:21:51.529Z,995.6
2022-11-17T16:24:51.790Z,995.6
2022-11-17T16:27:51.820Z,995.6
2022-11-17T16:30:52.065Z,995.6
2022-11-17T16:33:52.237Z,995.6
2022-11-17T16:36:52.496Z,995.6
2022-11-17T16:39:52.739Z,995.6
2022-11-17T16:42:52.936Z,995.6
2022-11-17T16:45:53.206Z,995.6
2022-11-17T16:48:53.422Z,995.6
2022-11-17T16:51:53.703Z,995.6
2022-11-17T16:54:53.937Z,995.7
2022-11-17T16:57:54.124Z,995.7
2022-11-17T17:00:54.332Z,995.7
2022-11-17T17:03:54.587Z,995.7
2022-11-17T17:06:55.107Z,995.7
2022-11-17T17:09:55.134Z,995.7
2022-11-17T17:13:05.364Z,995.7
2022-11-17T17:15:55.591Z,995.7
2022-11-17T17:18:55.831Z,995.7
2022-11-17T17:21:56.089Z,995.7
2022-11-17T17:24:56.296Z,995.8
2022-11-17T17:27:56.582Z,995.8
2022-11-17T17:30:56.760Z,995.8
2022-11-17T17:33:52.043Z,995.8
2022-11-17T17:36:52.222Z,995.9
2022-11-17T17:39:52.377Z,995.9
2022-11-17T17:42:52.637Z,995.9
2022-11-17T17:45:52.885Z,995.9
2022-11-17T17:48:53.113Z,996
2022-11-17T17:51:53.455Z,996
2022-11-17T17:54:53.593Z,996
2022-11-17T17:57:53.861Z,996
2022-11-17T18:00:54.057Z,996
2022-11-17T18:03:54.287Z,996
2022-11-17T18:06:54.577Z,996
2022-11-17T18:09:54.916Z,996
2022-11-17T18:12:54.914Z,996.1
2022-11-17T18:15:55.183Z,996.1
2022-11-17T18:18:55.347Z,996.1
2022-11-17T18:21:55.654Z,996.2
2022-11-17T18:24:58.689Z,996.2
2022-11-17T18:27:56.102Z,996.2
2022-11-17T18:30:56.350Z,996.3
2022-11-17T18:33:51.552Z,996.3
2022-11-17T18:36:51.743Z,996.3
2022-11-17T18:39:52.229Z,996.3
2022-11-17T18:42:52.078Z,996.3
2022-11-17T18:45:52.288Z,996.3
2022-11-17T18:48:52.531Z,996.4
2022-11-17T18:51:52.767Z,996.4
2022-11-17T18:54:53.010Z,996.4
2022-11-17T18:57:53.249Z,996.4
2022-11-17T19:00:53.682Z,996.4
2022-11-17T19:04:48.961Z,996.4
2022-11-17T19:06:26.083Z,996.4
2022-11-17T19:09:28.856Z,996.4
2022-11-17T19:12:28.570Z,996.4
2022-11-17T19:15:28.753Z,996.4
2022-11-17T19:18:28.451Z,996.4
2022-11-17T19:21:28.322Z,996.4
2022-11-17T19:24:28.419Z,996.4
2022-11-17T19:27:53.212Z,996.5
